Time;durP1;ratioP1;P1;durP2;ratioP2;P2;SDS_P1;SDS_P2;PMS_P1;PMS_P2;Temp;Humidity;BMP_temperature;BMP_pressure;BME280_temperature;BME280_humidity;BME280_pressure;Samples;Min_cycle;Max_cycle;Signal;HPM_P1;HPM_P2
2022/04/25 00:02:08;;;;;;;2.28;2.00;;;;;;;;;;7299571;19;140536;-76
2022/04/25 00:04:37;;;;;;;2.15;1.95;;;;;;;;;;7298003;19;140993;-76
2022/04/25 00:07:04;;;;;;;2.47;2.00;;;;;;;;;;7298905;19;141934;-77
2022/04/25 00:09:31;;;;;;;1.80;1.70;;;;;;;;;;7301383;19;140753;-78
2022/04/25 00:11:59;;;;;;;1.93;1.83;;;;;;;;;;7300014;19;140852;-77
2022/04/25 00:14:26;;;;;;;2.00;1.80;;;;;;;;;;7299200;19;141986;-78
2022/04/25 00:16:56;;;;;;;2.10;1.90;;;;;;;;;;7299350;19;141920;-78
2022/04/25 00:19:23;;;;;;;2.03;1.80;;;;;;;;;;7299311;19;141302;-77
2022/04/25 00:21:53;;;;;;;1.80;1.70;;;;;;;;;;7297313;19;140793;-78
2022/04/25 00:24:21;;;;;;;2.10;1.90;;;;;;;;;;7298322;19;141316;-78
2022/04/25 00:26:48;;;;;;;2.83;2.03;;;;;;;;;;7298993;19;142274;-78
2022/04/25 00:29:15;;;;;;;2.00;1.80;;;;;;;;;;7298546;19;140906;-78
2022/04/25 00:31:43;;;;;;;2.60;2.07;;;;;;;;;;7299282;19;140942;-78
2022/04/25 00:34:10;;;;;;;2.20;1.97;;;;;;;;;;7298481;19;140853;-78
2022/04/25 00:36:37;;;;;;;2.17;1.95;;;;;;;;;;7296721;19;142970;-78
2022/04/25 00:39:04;;;;;;;2.25;1.88;;;;;;;;;;7299088;19;140726;-78
2022/04/25 00:41:31;;;;;;;2.05;1.80;;;;;;;;;;7298815;19;140793;-77
2022/04/25 00:43:58;;;;;;;2.45;1.80;;;;;;;;;;7296333;19;140887;-78
2022/04/25 00:46:26;;;;;;;2.05;1.80;;;;;;;;;;7296976;19;141901;-78
2022/04/25 00:48:53;;;;;;;1.70;1.60;;;;;;;;;;7298167;19;140957;-78
2022/04/25 00:51:21;;;;;;;1.90;1.80;;;;;;;;;;7296391;19;140908;-78
2022/04/25 00:53:48;;;;;;;1.95;1.85;;;;;;;;;;7298263;19;141840;-78
2022/04/25 00:56:17;;;;;;;2.38;1.80;;;;;;;;;;7298092;19;142121;-77
2022/04/25 00:58:45;;;;;;;1.90;1.70;;;;;;;;;;7297884;19;141318;-77
2022/04/25 01:01:13;;;;;;;1.90;1.70;;;;;;;;;;7298457;19;141579;-77
2022/04/25 01:03:40;;;;;;;1.77;1.67;;;;;;;;;;7297077;19;141383;-77
2022/04/25 01:06:08;;;;;;;1.60;1.50;;;;;;;;;;7296767;19;143006;-77
2022/04/25 01:08:37;;;;;;;1.90;1.75;;;;;;;;;;7298071;19;140703;-77
2022/04/25 01:11:05;;;;;;;2.05;1.60;;;;;;;;;;7297716;19;140877;-77
2022/04/25 01:13:32;;;;;;;1.90;1.70;;;;;;;;;;7296635;19;140977;-77
2022/04/25 01:15:59;;;;;;;2.20;1.80;;;;;;;;;;7295537;19;142079;-77
2022/04/25 01:18:26;;;;;;;1.90;1.70;;;;;;;;;;7296633;19;141178;-77
2022/04/25 01:20:58;;;;;;;1.60;1.50;;;;;;;;;;7297808;19;140751;-77
2022/04/25 01:29:01;;;;;;;1.77;1.58;;;;;;;;;;7298015;19;141109;-78
2022/04/25 01:31:28;;;;;;;1.92;1.73;;;;;;;;;;7296946;19;141240;-77
2022/04/25 01:33:55;;;;;;;2.50;1.70;;;;;;;;;;7297080;19;140705;-77
2022/04/25 01:36:25;;;;;;;1.75;1.63;;;;;;;;;;7296856;19;141932;-78
2022/04/25 01:38:53;;;;;;;1.70;1.60;;;;;;;;;;7296420;19;140835;-78
2022/04/25 01:41:20;;;;;;;1.70;1.60;;;;;;;;;;7297277;19;140956;-78
2022/04/25 01:43:48;;;;;;;1.90;1.70;;;;;;;;;;7296663;19;142106;-79
2022/04/25 01:46:15;;;;;;;1.70;1.60;;;;;;;;;;7296787;19;142827;-79
2022/04/25 01:48:42;;;;;;;1.77;1.67;;;;;;;;;;7296798;19;140763;-79
2022/04/25 01:51:11;;;;;;;1.60;1.45;;;;;;;;;;7296953;19;140660;-78
2022/04/25 01:53:38;;;;;;;1.60;1.50;;;;;;;;;;7294663;19;141403;-78
2022/04/25 01:56:05;;;;;;;1.80;1.70;;;;;;;;;;7296491;19;142440;-79
2022/04/25 01:58:32;;;;;;;1.67;1.50;;;;;;;;;;7296690;19;140763;-78
2022/04/25 02:01:06;;;;;;;1.88;1.77;;;;;;;;;;7295419;19;140718;-78
2022/04/25 02:03:34;;;;;;;1.75;1.50;;;;;;;;;;7294858;19;140542;-79
2022/04/25 02:06:02;;;;;;;1.77;1.67;;;;;;;;;;7297625;19;142499;-78
2022/04/25 02:08:31;;;;;;;1.70;1.50;;;;;;;;;;7303699;19;140815;-79
2022/04/25 02:13:45;;;;;;;1.65;1.55;;;;;;;;;;7295495;19;141335;-78
2022/04/25 02:16:12;;;;;;;1.60;1.50;;;;;;;;;;7296012;19;140748;-78
2022/04/25 02:18:40;;;;;;;1.70;1.60;;;;;;;;;;7295791;19;140816;-77
2022/04/25 02:21:07;;;;;;;1.70;1.60;;;;;;;;;;7296421;19;140779;-77
2022/04/25 02:23:36;;;;;;;1.70;1.60;;;;;;;;;;7294873;19;140935;-77
2022/04/25 02:26:04;;;;;;;1.60;1.50;;;;;;;;;;7295834;19;142539;-78
2022/04/25 02:28:33;;;;;;;1.67;1.42;;;;;;;;;;7296029;19;141329;-78
2022/04/25 02:31:04;;;;;;;1.70;1.53;;;;;;;;;;7295892;19;140903;-78
2022/04/25 02:33:32;;;;;;;1.50;1.40;;;;;;;;;;7294899;19;142013;-78
2022/04/25 02:36:00;;;;;;;1.58;1.48;;;;;;;;;;7293322;19;142590;-78
2022/04/25 02:38:27;;;;;;;1.60;1.50;;;;;;;;;;7295314;19;140649;-78
2022/04/25 02:41:15;;;;;;;1.50;1.40;;;;;;;;;;7294945;19;140611;-77
2022/04/25 02:43:43;;;;;;;1.75;1.60;;;;;;;;;;7295088;19;141764;-78
2022/04/25 02:46:12;;;;;;;1.40;1.30;;;;;;;;;;7293375;19;141186;-77
2022/04/25 02:48:42;;;;;;;1.60;1.50;;;;;;;;;;7294483;19;140761;-78
2022/04/25 02:51:11;;;;;;;1.60;1.40;;;;;;;;;;7295736;19;140735;-77
2022/04/25 02:53:38;;;;;;;1.55;1.45;;;;;;;;;;7293468;19;140839;-78
2022/04/25 02:56:06;;;;;;;1.58;1.48;;;;;;;;;;7294231;19;142041;-77
2022/04/25 02:58:35;;;;;;;1.60;1.50;;;;;;;;;;7295352;19;140583;-77
2022/04/25 03:01:05;;;;;;;1.40;1.30;;;;;;;;;;7295132;19;141461;-77
2022/04/25 03:03:34;;;;;;;1.60;1.50;;;;;;;;;;7293559;19;143719;-78
2022/04/25 03:06:03;;;;;;;1.40;1.30;;;;;;;;;;7292413;19;142118;-78
2022/04/25 03:08:31;;;;;;;1.60;1.50;;;;;;;;;;7293229;19;140506;-77
2022/04/25 03:10:58;;;;;;;1.60;1.50;;;;;;;;;;7294859;19;140814;-78
2022/04/25 03:13:25;;;;;;;1.50;1.40;;;;;;;;;;7292892;19;141258;-78
2022/04/25 03:15:53;;;;;;;1.40;1.30;;;;;;;;;;7299924;19;142724;-77
2022/04/25 03:18:24;;;;;;;1.60;1.40;;;;;;;;;;7301713;19;140694;-77
2022/04/25 03:20:51;;;;;;;1.60;1.43;;;;;;;;;;7302174;19;140656;-77
2022/04/25 03:23:20;;;;;;;1.50;1.40;;;;;;;;;;7298628;19;141211;-78
2022/04/25 03:25:49;;;;;;;1.52;1.42;;;;;;;;;;7301024;19;140787;-77
2022/04/25 03:28:17;;;;;;;1.50;1.40;;;;;;;;;;7300992;19;141182;-77
2022/04/25 03:30:44;;;;;;;1.42;1.33;;;;;;;;;;7301235;19;140677;-77
2022/04/25 03:33:12;;;;;;;1.40;1.30;;;;;;;;;;7300908;19;141881;-76
2022/04/25 03:35:40;;;;;;;1.40;1.30;;;;;;;;;;7299947;19;142097;-78
2022/04/25 03:38:08;;;;;;;1.42;1.33;;;;;;;;;;7300521;19;140825;-78
2022/04/25 03:40:36;;;;;;;1.50;1.40;;;;;;;;;;7300735;19;140882;-78
2022/04/25 03:43:07;;;;;;;1.50;1.35;;;;;;;;;;7300246;19;141221;-78
2022/04/25 03:45:35;;;;;;;1.33;1.23;;;;;;;;;;7298924;19;141943;-78
2022/04/25 03:48:03;;;;;;;1.30;1.20;;;;;;;;;;7299434;19;140624;-78
2022/04/25 03:50:31;;;;;;;1.67;1.40;;;;;;;;;;7300369;19;141097;-77
2022/04/25 03:53:08;;;;;;;1.38;1.27;;;;;;;;;;7299810;19;141995;-78
2022/04/25 03:58:22;;;;;;;1.33;1.23;;;;;;;;;;7300300;19;140753;-79
2022/04/25 04:00:49;;;;;;;1.40;1.30;;;;;;;;;;7300072;19;141014;-79
2022/04/25 04:03:18;;;;;;;1.50;1.40;;;;;;;;;;7299874;19;142022;-79
2022/04/25 04:05:50;;;;;;;1.35;1.25;;;;;;;;;;7299028;19;142519;-78
2022/04/25 04:08:17;;;;;;;1.55;1.45;;;;;;;;;;7303062;19;141070;-79
2022/04/25 04:10:45;;;;;;;1.50;1.30;;;;;;;;;;7299877;19;140818;-77
2022/04/25 04:13:12;;;;;;;1.40;1.30;;;;;;;;;;7299368;19;141557;-81
2022/04/25 04:15:40;;;;;;;1.50;1.40;;;;;;;;;;7298303;19;141220;-78
2022/04/25 04:18:08;;;;;;;1.30;1.20;;;;;;;;;;7300055;19;140679;-78
2022/04/25 04:20:36;;;;;;;1.30;1.20;;;;;;;;;;7299415;19;141693;-77
2022/04/25 04:23:03;;;;;;;1.33;1.23;;;;;;;;;;7300699;19;141673;-78
2022/04/25 04:25:32;;;;;;;1.20;1.10;;;;;;;;;;7299357;19;142288;-77
2022/04/25 04:28:00;;;;;;;1.55;1.30;;;;;;;;;;7299328;19;140803;-77
2022/04/25 04:30:28;;;;;;;1.40;1.30;;;;;;;;;;7298578;19;140891;-76
2022/04/25 04:33:02;;;;;;;1.40;1.30;;;;;;;;;;7297541;19;141449;-77
2022/04/25 04:38:15;;;;;;;2.35;1.40;;;;;;;;;;7299633;19;141211;-76
2022/04/25 04:40:42;;;;;;;1.60;1.50;;;;;;;;;;7297626;19;141456;-74
2022/04/25 04:43:09;;;;;;;3.15;1.63;;;;;;;;;;7298763;19;141122;-76
2022/04/25 04:45:37;;;;;;;2.10;1.50;;;;;;;;;;7298980;19;141319;-76
2022/04/25 04:48:04;;;;;;;1.83;1.30;;;;;;;;;;7297555;19;140925;-75
2022/04/25 04:50:31;;;;;;;5.17;2.63;;;;;;;;;;7299467;19;141874;-79
2022/04/25 04:53:00;;;;;;;7.70;2.75;;;;;;;;;;7296872;19;141467;-76
2022/04/25 04:55:27;;;;;;;6.57;2.57;;;;;;;;;;7297816;19;141973;-76
2022/04/25 04:57:58;;;;;;;5.32;2.33;;;;;;;;;;7298737;19;140583;-75
2022/04/25 05:00:25;;;;;;;4.70;2.50;;;;;;;;;;7299089;19;140648;-75
2022/04/25 05:02:52;;;;;;;3.95;2.42;;;;;;;;;;7297445;19;141387;-75
2022/04/25 05:05:20;;;;;;;3.83;2.30;;;;;;;;;;7298204;19;140938;-75
2022/04/25 05:07:48;;;;;;;4.83;2.40;;;;;;;;;;7296458;19;141183;-76
2022/04/25 05:10:15;;;;;;;3.73;2.10;;;;;;;;;;7300775;19;140774;-76
2022/04/25 05:12:46;;;;;;;4.03;2.42;;;;;;;;;;7299114;19;141330;-77
2022/04/25 05:15:16;;;;;;;4.55;2.25;;;;;;;;;;7297537;19;141722;-75
2022/04/25 05:17:45;;;;;;;3.53;2.03;;;;;;;;;;7298536;19;140919;-75
2022/04/25 05:20:13;;;;;;;4.03;2.30;;;;;;;;;;7296417;19;140843;-81
2022/04/25 05:22:46;;;;;;;3.63;2.17;;;;;;;;;;7297337;19;142148;-77
2022/04/25 05:25:15;;;;;;;2.60;2.20;;;;;;;;;;7296091;19;141844;-76
2022/04/25 05:27:47;;;;;;;3.90;2.20;;;;;;;;;;7297793;19;140873;-76
2022/04/25 05:30:15;;;;;;;4.50;2.40;;;;;;;;;;7295346;19;140917;-76
2022/04/25 05:32:48;;;;;;;2.90;2.13;;;;;;;;;;7297958;19;140962;-73
2022/04/25 05:35:21;;;;;;;4.77;2.20;;;;;;;;;;7296350;19;142171;-73
2022/04/25 05:37:49;;;;;;;3.15;2.10;;;;;;;;;;7295481;19;140627;-73
2022/04/25 05:40:17;;;;;;;2.53;2.00;;;;;;;;;;7297290;19;140707;-73
2022/04/25 05:42:45;;;;;;;3.10;2.00;;;;;;;;;;7297138;19;140555;-73
2022/04/25 05:45:15;;;;;;;3.30;1.70;;;;;;;;;;7296104;19;142457;-73
2022/04/25 05:47:45;;;;;;;2.65;1.90;;;;;;;;;;7296655;19;140916;-73
2022/04/25 05:53:00;;;;;;;3.05;1.98;;;;;;;;;;7295808;19;141625;-73
2022/04/25 05:55:30;;;;;;;2.00;1.80;;;;;;;;;;7296103;19;141940;-73
2022/04/25 05:57:59;;;;;;;2.40;1.90;;;;;;;;;;7296909;19;140620;-73
2022/04/25 06:00:27;;;;;;;2.22;1.80;;;;;;;;;;7296752;19;141062;-73
2022/04/25 06:02:57;;;;;;;3.45;1.85;;;;;;;;;;7296227;19;141145;-73
2022/04/25 06:05:24;;;;;;;2.20;2.00;;;;;;;;;;7295305;19;142357;-72
2022/04/25 06:07:53;;;;;;;2.80;2.00;;;;;;;;;;7296154;19;140915;-73
2022/04/25 06:10:28;;;;;;;2.33;1.83;;;;;;;;;;7296235;19;140787;-72
2022/04/25 06:12:55;;;;;;;2.90;2.00;;;;;;;;;;7293845;19;142016;-72
2022/04/25 06:15:24;;;;;;;2.87;1.70;;;;;;;;;;7296273;19;142705;-73
2022/04/25 06:17:54;;;;;;;2.83;1.93;;;;;;;;;;7296268;19;140779;-73
2022/04/25 06:20:21;;;;;;;2.17;1.80;;;;;;;;;;7295374;19;141265;-73
2022/04/25 06:23:02;;;;;;;1.90;1.70;;;;;;;;;;7295610;19;140862;-72
2022/04/25 06:25:30;;;;;;;2.35;1.83;;;;;;;;;;7293947;19;142287;-72
2022/04/25 06:28:00;;;;;;;2.00;1.73;;;;;;;;;;7293571;19;140779;-72
2022/04/25 06:30:30;;;;;;;2.40;1.70;;;;;;;;;;7295629;19;141541;-73
2022/04/25 06:33:00;;;;;;;2.90;1.90;;;;;;;;;;7293977;19;141314;-74
2022/04/25 06:35:28;;;;;;;2.15;1.70;;;;;;;;;;7294559;19;141941;-72
2022/04/25 06:37:55;;;;;;;1.70;1.60;;;;;;;;;;7295955;19;141230;-73
2022/04/25 06:40:23;;;;;;;2.13;1.73;;;;;;;;;;7295135;19;140967;-72
2022/04/25 06:42:51;;;;;;;1.83;1.60;;;;;;;;;;7295478;19;141033;-73
2022/04/25 06:45:18;;;;;;;1.70;1.50;;;;;;;;;;7295214;19;142669;-72
2022/04/25 06:47:45;;;;;;;1.98;1.60;;;;;;;;;;7295045;19;140583;-73
2022/04/25 06:50:13;;;;;;;1.50;1.40;;;;;;;;;;7298566;19;140573;-72
2022/04/25 06:52:40;;;;;;;2.10;1.70;;;;;;;;;;7302131;19;140874;-73
2022/04/25 06:55:07;;;;;;;1.73;1.63;;;;;;;;;;7299725;19;142070;-73
2022/04/25 06:57:35;;;;;;;2.30;1.70;;;;;;;;;;7302562;19;141540;-73
2022/04/25 07:00:11;;;;;;;1.97;1.60;;;;;;;;;;7302339;19;140781;-73
2022/04/25 07:02:59;;;;;;;1.92;1.60;;;;;;;;;;7300989;19;144927;-73
2022/04/25 07:05:26;;;;;;;1.67;1.57;;;;;;;;;;7300961;19;141523;-73
2022/04/25 07:07:53;;;;;;;1.88;1.50;;;;;;;;;;7299744;19;141263;-73
2022/04/25 07:10:20;;;;;;;1.63;1.52;;;;;;;;;;7302261;19;140744;-72
2022/04/25 07:12:48;;;;;;;2.08;1.58;;;;;;;;;;7301203;19;141321;-72
2022/04/25 07:15:15;;;;;;;1.40;1.30;;;;;;;;;;7299031;19;141903;-73
2022/04/25 07:17:42;;;;;;;1.70;1.33;;;;;;;;;;7301050;19;140698;-73
2022/04/25 07:20:09;;;;;;;1.40;1.30;;;;;;;;;;7300624;19;140987;-72
2022/04/25 07:30:55;;;;;;;1.50;1.40;;;;;;;;;;7301124;19;141538;-72
2022/04/25 07:33:23;;;;;;;1.60;1.50;;;;;;;;;;7299945;19;140910;-72
2022/04/25 07:35:51;;;;;;;1.87;1.60;;;;;;;;;;7300169;19;141897;-72
2022/04/25 07:38:18;;;;;;;1.73;1.50;;;;;;;;;;7301764;19;140751;-72
2022/04/25 07:40:46;;;;;;;1.50;1.40;;;;;;;;;;7299478;19;140666;-73
2022/04/25 07:43:14;;;;;;;2.00;1.60;;;;;;;;;;7300378;19;141452;-73
2022/04/25 07:45:41;;;;;;;2.00;1.50;;;;;;;;;;7300228;19;141863;-73
2022/04/25 07:48:08;;;;;;;1.50;1.40;;;;;;;;;;7300204;19;140796;-72
2022/04/25 07:50:36;;;;;;;1.40;1.30;;;;;;;;;;7300167;19;140781;-73
2022/04/25 07:53:03;;;;;;;1.45;1.35;;;;;;;;;;7300236;19;142243;-72
2022/04/25 07:55:32;;;;;;;1.50;1.40;;;;;;;;;;7302302;19;142591;-72
2022/04/25 07:57:59;;;;;;;1.60;1.50;;;;;;;;;;7299681;19;140640;-72
2022/04/25 08:00:27;;;;;;;1.42;1.33;;;;;;;;;;7299608;19;140760;-72
2022/04/25 08:02:54;;;;;;;1.70;1.50;;;;;;;;;;7298413;19;141325;-73
2022/04/25 08:05:21;;;;;;;1.80;1.60;;;;;;;;;;7298633;19;142204;-73
2022/04/25 08:07:48;;;;;;;1.67;1.50;;;;;;;;;;7300266;19;141405;-73
2022/04/25 08:10:15;;;;;;;1.60;1.40;;;;;;;;;;7298506;19;140967;-73
2022/04/25 08:18:14;;;;;;;1.40;1.30;;;;;;;;;;7299384;19;140615;-73
2022/04/25 08:20:43;;;;;;;1.58;1.48;;;;;;;;;;7299024;19;141073;-73
2022/04/25 08:23:12;;;;;;;1.60;1.50;;;;;;;;;;7298890;19;141303;-73
2022/04/25 08:25:41;;;;;;;1.50;1.40;;;;;;;;;;7299198;19;141638;-73
2022/04/25 08:28:09;;;;;;;1.50;1.40;;;;;;;;;;7299452;19;140525;-73
2022/04/25 08:30:37;;;;;;;1.60;1.50;;;;;;;;;;7299020;19;141088;-73
2022/04/25 08:33:04;;;;;;;1.90;1.52;;;;;;;;;;7298539;19;142009;-73
2022/04/25 08:35:31;;;;;;;1.52;1.30;;;;;;;;;;7296312;19;142098;-74
2022/04/25 08:37:58;;;;;;;1.80;1.40;;;;;;;;;;7298920;19;141145;-73
2022/04/25 08:40:26;;;;;;;1.50;1.40;;;;;;;;;;7298189;19;140853;-73
2022/04/25 08:42:54;;;;;;;1.58;1.48;;;;;;;;;;7298667;19;141558;-73
2022/04/25 08:45:23;;;;;;;1.40;1.30;;;;;;;;;;7297074;19;141197;-73
2022/04/25 08:47:55;;;;;;;1.58;1.30;;;;;;;;;;7298461;19;140595;-73
2022/04/25 08:50:22;;;;;;;1.77;1.60;;;;;;;;;;7296623;19;140734;-73
2022/04/25 08:52:51;;;;;;;1.60;1.50;;;;;;;;;;7298213;19;141850;-73
2022/04/25 08:55:19;;;;;;;1.60;1.40;;;;;;;;;;7297792;19;141152;-73
2022/04/25 08:57:48;;;;;;;1.50;1.40;;;;;;;;;;7298591;19;140847;-74
2022/04/25 09:00:15;;;;;;;1.53;1.40;;;;;;;;;;7297542;19;140878;-73
2022/04/25 09:02:49;;;;;;;1.50;1.40;;;;;;;;;;7296236;19;140687;-72
2022/04/25 09:05:17;;;;;;;1.50;1.40;;;;;;;;;;7297500;19;141048;-72
2022/04/25 09:07:45;;;;;;;2.03;1.30;;;;;;;;;;7296489;19;140779;-72
2022/04/25 09:10:17;;;;;;;1.58;1.48;;;;;;;;;;7298169;19;140708;-72
2022/04/25 09:12:46;;;;;;;1.70;1.48;;;;;;;;;;7295930;19;141513;-73
2022/04/25 09:15:24;;;;;;;1.50;1.40;;;;;;;;;;7296265;19;141494;-73
2022/04/25 09:17:55;;;;;;;2.30;1.50;;;;;;;;;;7297557;19;140803;-74
2022/04/25 09:20:24;;;;;;;3.77;1.80;;;;;;;;;;7297811;19;141330;-74
2022/04/25 09:22:52;;;;;;;3.38;2.00;;;;;;;;;;7297292;19;141221;-74
2022/04/25 09:25:20;;;;;;;3.30;2.05;;;;;;;;;;7297150;19;142460;-74
2022/04/25 09:28:12;;;;;;;5.97;2.40;;;;;;;;;;7298289;19;141198;-74
2022/04/25 09:30:57;;;;;;;4.80;2.40;;;;;;;;;;7297036;19;140667;-74
2022/04/25 09:33:24;;;;;;;5.00;2.65;;;;;;;;;;7297127;19;142362;-74
2022/04/25 09:35:56;;;;;;;5.90;2.60;;;;;;;;;;7295474;19;142049;-74
2022/04/25 09:38:44;;;;;;;7.03;2.70;;;;;;;;;;7297204;19;141013;-73
2022/04/25 09:41:17;;;;;;;3.17;2.50;;;;;;;;;;7297623;19;140733;-73
2022/04/25 09:43:47;;;;;;;7.00;2.77;;;;;;;;;;7296338;19;141137;-73
2022/04/25 09:46:16;;;;;;;3.93;2.70;;;;;;;;;;7296165;19;141234;-74
2022/04/25 09:49:04;;;;;;;4.53;2.58;;;;;;;;;;7296743;19;140755;-75
2022/04/25 09:51:31;;;;;;;5.33;2.83;;;;;;;;;;7295627;19;140881;-73
2022/04/25 09:53:58;;;;;;;4.15;2.80;;;;;;;;;;7296253;19;140588;-73
2022/04/25 09:56:27;;;;;;;5.20;2.80;;;;;;;;;;7296571;19;142537;-74
2022/04/25 09:59:06;;;;;;;4.05;2.95;;;;;;;;;;7297308;19;141224;-74
2022/04/25 10:01:36;;;;;;;5.45;2.90;;;;;;;;;;7294920;19;141428;-73
2022/04/25 10:04:24;;;;;;;4.72;2.88;;;;;;;;;;7296299;19;140922;-73
2022/04/25 10:06:52;;;;;;;4.27;2.90;;;;;;;;;;7295265;19;141737;-74
2022/04/25 10:09:21;;;;;;;5.00;2.90;;;;;;;;;;7296581;19;140881;-74
2022/04/25 10:11:49;;;;;;;6.00;2.90;;;;;;;;;;7295932;19;140624;-73
2022/04/25 10:14:17;;;;;;;4.23;3.13;;;;;;;;;;7294333;19;142017;-73
2022/04/25 10:16:45;;;;;;;3.35;2.83;;;;;;;;;;7296441;19;140934;-74
2022/04/25 10:19:18;;;;;;;3.85;2.83;;;;;;;;;;7296616;19;140668;-74
2022/04/25 10:21:47;;;;;;;2.90;2.60;;;;;;;;;;7294656;19;140731;-74
2022/04/25 10:24:18;;;;;;;5.22;3.00;;;;;;;;;;7300278;19;141834;-74
2022/04/25 10:26:47;;;;;;;3.28;2.70;;;;;;;;;;7302078;19;141383;-74
2022/04/25 10:29:21;;;;;;;3.60;2.80;;;;;;;;;;7303231;19;140678;-74
2022/04/25 10:31:50;;;;;;;5.15;3.00;;;;;;;;;;7302880;19;140679;-74
2022/04/25 10:34:17;;;;;;;3.75;2.80;;;;;;;;;;7302705;19;140895;-74
2022/04/25 10:36:46;;;;;;;4.88;3.05;;;;;;;;;;7304565;19;141275;-73
2022/04/25 10:39:17;;;;;;;5.25;2.90;;;;;;;;;;7307767;19;141556;-73
2022/04/25 10:44:42;;;;;;;5.50;2.90;;;;;;;;;;7305105;19;141259;-72
2022/04/25 10:47:15;;;;;;;4.68;2.80;;;;;;;;;;7304045;19;141110;-73
2022/04/25 10:49:46;;;;;;;4.60;2.97;;;;;;;;;;7303045;19;140741;-72
2022/04/25 10:52:32;;;;;;;3.47;2.70;;;;;;;;;;7302640;19;140597;-73
2022/04/25 10:55:14;;;;;;;4.35;3.00;;;;;;;;;;7302526;19;140775;-74
2022/04/25 10:58:02;;;;;;;3.23;2.77;;;;;;;;;;7302210;19;141565;-73
2022/04/25 11:00:45;;;;;;;3.72;2.65;;;;;;;;;;7301962;19;141187;-74
2022/04/25 11:03:23;;;;;;;4.03;2.80;;;;;;;;;;7302496;19;140518;-73
2022/04/25 11:06:05;;;;;;;3.33;2.72;;;;;;;;;;7299534;19;141454;-73
2022/04/25 11:08:38;;;;;;;3.67;2.80;;;;;;;;;;7301290;19;141287;-73
2022/04/25 11:11:08;;;;;;;4.63;3.00;;;;;;;;;;7302297;19;140688;-73
2022/04/25 11:13:50;;;;;;;4.35;2.90;;;;;;;;;;7300188;19;140639;-73
2022/04/25 11:16:26;;;;;;;3.90;2.70;;;;;;;;;;7300814;19;141294;-74
2022/04/25 11:19:05;;;;;;;5.47;2.80;;;;;;;;;;7301267;19;141894;-73
2022/04/25 11:21:32;;;;;;;4.60;3.00;;;;;;;;;;7300243;19;140900;-73
2022/04/25 11:24:01;;;;;;;4.15;2.90;;;;;;;;;;7299276;19;140918;-74
2022/04/25 11:26:29;;;;;;;3.97;3.17;;;;;;;;;;7300903;19;140939;-73
2022/04/25 11:29:08;;;;;;;3.92;2.80;;;;;;;;;;7300631;19;141169;-73
2022/04/25 11:31:37;;;;;;;4.70;3.10;;;;;;;;;;7301160;19;140663;-74
2022/04/25 11:34:07;;;;;;;4.55;2.80;;;;;;;;;;7300280;19;140730;-73
2022/04/25 11:36:39;;;;;;;4.40;3.00;;;;;;;;;;7298170;19;140715;-74
2022/04/25 11:41:52;;;;;;;3.47;2.80;;;;;;;;;;7301302;19;140991;-72
2022/04/25 11:44:19;;;;;;;5.22;3.20;;;;;;;;;;7298917;19;140965;-73
2022/04/25 11:46:48;;;;;;;3.42;2.67;;;;;;;;;;7300488;19;140544;-73
2022/04/25 11:49:29;;;;;;;4.25;2.75;;;;;;;;;;7299768;19;141941;-73
2022/04/25 11:51:58;;;;;;;3.40;2.65;;;;;;;;;;7299680;19;140763;-73
2022/04/25 11:54:28;;;;;;;4.25;3.10;;;;;;;;;;7298889;19;141512;-73
2022/04/25 11:57:00;;;;;;;4.43;2.87;;;;;;;;;;7300030;19;142092;-73
2022/04/25 11:59:28;;;;;;;3.88;2.70;;;;;;;;;;7300439;19;140722;-73
2022/04/25 12:01:55;;;;;;;4.23;2.63;;;;;;;;;;7300730;19;140794;-73
2022/04/25 12:04:24;;;;;;;4.55;2.83;;;;;;;;;;7299224;19;140913;-73
2022/04/25 12:07:02;;;;;;;3.63;2.70;;;;;;;;;;7298380;19;141295;-72
2022/04/25 12:18:19;;;;;;;4.15;2.90;;;;;;;;;;7299237;19;140784;-73
2022/04/25 12:21:00;;;;;;;4.97;3.00;;;;;;;;;;7299317;19;140899;-73
2022/04/25 12:23:30;;;;;;;5.20;3.00;;;;;;;;;;7297332;19;141423;-73
2022/04/25 12:26:02;;;;;;;6.00;3.40;;;;;;;;;;7299751;19;141088;-73
2022/04/25 12:28:31;;;;;;;4.57;3.08;;;;;;;;;;7298536;19;140886;-73
2022/04/25 12:31:00;;;;;;;4.85;3.10;;;;;;;;;;7298178;19;141479;-73
2022/04/25 12:33:43;;;;;;;4.93;3.00;;;;;;;;;;7298451;19;141332;-73
2022/04/25 12:36:20;;;;;;;4.15;3.00;;;;;;;;;;7298719;19;140599;-73
2022/04/25 12:39:02;;;;;;;4.40;2.80;;;;;;;;;;7298438;19;141514;-73
2022/04/25 12:41:35;;;;;;;5.53;3.35;;;;;;;;;;7296788;19;142291;-73
2022/04/25 12:44:10;;;;;;;3.80;2.70;;;;;;;;;;7299186;19;140845;-73
2022/04/25 12:46:49;;;;;;;5.45;3.38;;;;;;;;;;7298277;19;140664;-73
2022/04/25 12:49:20;;;;;;;5.33;3.00;;;;;;;;;;7296918;19;143285;-73
2022/04/25 12:51:51;;;;;;;4.43;3.03;;;;;;;;;;7297440;19;140937;-73
2022/04/25 12:54:20;;;;;;;4.50;2.87;;;;;;;;;;7298678;19;141352;-73
2022/04/25 12:56:49;;;;;;;4.40;3.10;;;;;;;;;;7298648;19;140640;-73
2022/04/25 12:59:27;;;;;;;5.67;3.30;;;;;;;;;;7298340;19;140809;-73
2022/04/25 13:02:15;;;;;;;5.40;3.47;;;;;;;;;;7295828;19;141050;-73
2022/04/25 13:05:09;;;;;;;5.53;3.20;;;;;;;;;;7298740;19;141365;-73
2022/04/25 13:07:44;;;;;;;4.93;3.30;;;;;;;;;;7297038;19;141244;-73
2022/04/25 13:10:18;;;;;;;5.85;3.25;;;;;;;;;;7297292;19;140846;-73
2022/04/25 13:12:47;;;;;;;7.27;3.90;;;;;;;;;;7295256;19;142097;-72
2022/04/25 13:15:20;;;;;;;5.87;3.73;;;;;;;;;;7296747;19;140879;-73
2022/04/25 13:17:48;;;;;;;6.20;3.03;;;;;;;;;;7296626;19;140653;-73
2022/04/25 13:20:18;;;;;;;6.72;3.90;;;;;;;;;;7296142;19;140578;-73
2022/04/25 13:22:45;;;;;;;7.85;4.28;;;;;;;;;;7295014;19;142794;-73
2022/04/25 13:25:14;;;;;;;6.57;4.20;;;;;;;;;;7297465;19;140573;-73
2022/04/25 13:27:42;;;;;;;7.53;4.37;;;;;;;;;;7295017;19;140768;-72
2022/04/25 13:30:12;;;;;;;8.33;4.43;;;;;;;;;;7296743;19;142266;-72
2022/04/25 13:32:43;;;;;;;6.68;3.67;;;;;;;;;;7297097;19;141584;-72
2022/04/25 13:35:12;;;;;;;6.20;4.00;;;;;;;;;;7294893;19;141416;-72
2022/04/25 13:37:41;;;;;;;6.63;3.77;;;;;;;;;;7296498;19;140944;-73
2022/04/25 13:40:08;;;;;;;6.63;3.70;;;;;;;;;;7296975;19;141124;-73
2022/04/25 13:42:36;;;;;;;6.88;3.90;;;;;;;;;;7296218;19;142340;-72
2022/04/25 13:45:05;;;;;;;7.60;3.85;;;;;;;;;;7297502;19;141358;-72
2022/04/25 13:47:33;;;;;;;6.32;3.80;;;;;;;;;;7296753;19;141145;-73
2022/04/25 13:50:00;;;;;;;4.93;3.53;;;;;;;;;;7294582;19;140930;-72
2022/04/25 13:52:27;;;;;;;6.20;3.73;;;;;;;;;;7294324;19;142130;-72
2022/04/25 13:54:54;;;;;;;6.43;3.65;;;;;;;;;;7294946;19;140786;-73
2022/04/25 13:57:21;;;;;;;6.60;3.80;;;;;;;;;;7296280;19;140836;-72
2022/04/25 13:59:48;;;;;;;5.70;3.42;;;;;;;;;;7294438;19;141573;-72
2022/04/25 14:05:02;;;;;;;4.57;3.38;;;;;;;;;;7296126;19;140639;-73
2022/04/25 14:07:30;;;;;;;5.20;3.30;;;;;;;;;;7294183;19;140908;-72
2022/04/25 14:09:57;;;;;;;5.57;3.60;;;;;;;;;;7296049;19;141186;-73
2022/04/25 14:12:24;;;;;;;4.85;3.60;;;;;;;;;;7296052;19;142913;-72
2022/04/25 14:14:51;;;;;;;5.57;3.45;;;;;;;;;;7295651;19;140897;-73
2022/04/25 14:17:19;;;;;;;5.43;3.33;;;;;;;;;;7295718;19;140750;-72
2022/04/25 14:19:47;;;;;;;5.60;3.50;;;;;;;;;;7296020;19;142298;-72
2022/04/25 14:22:14;;;;;;;5.75;3.45;;;;;;;;;;7294822;19;140662;-72
2022/04/25 14:24:43;;;;;;;5.18;3.40;;;;;;;;;;7293519;19;141325;-72
2022/04/25 14:27:11;;;;;;;5.10;3.47;;;;;;;;;;7294503;19;140936;-73
2022/04/25 14:29:38;;;;;;;5.47;3.60;;;;;;;;;;7293680;19;141406;-72
2022/04/25 14:32:06;;;;;;;5.15;3.40;;;;;;;;;;7295511;19;142244;-73
2022/04/25 14:34:33;;;;;;;4.97;3.20;;;;;;;;;;7294972;19;141280;-72
2022/04/25 14:37:01;;;;;;;5.68;3.38;;;;;;;;;;7295048;19;140976;-72
2022/04/25 14:39:29;;;;;;;4.82;3.40;;;;;;;;;;7293247;19;142230;-73
2022/04/25 14:41:56;;;;;;;4.80;3.40;;;;;;;;;;7293613;19;140837;-72
2022/04/25 14:44:24;;;;;;;5.60;3.50;;;;;;;;;;7293196;19;140728;-73
2022/04/25 14:46:52;;;;;;;5.30;3.22;;;;;;;;;;7293185;19;140663;-72
2022/04/25 14:54:20;;;;;;;6.07;3.50;;;;;;;;;;7294885;19;142128;-73
2022/04/25 14:54:52;;;;;;;5.70;3.50;;;;;;;;;;7294957;19;140581;-72
2022/04/25 14:57:19;;;;;;;5.30;3.28;;;;;;;;;;7293796;19;140879;-73
2022/04/25 14:59:46;;;;;;;4.72;3.50;;;;;;;;;;7293939;19;141090;-72
2022/04/25 15:02:14;;;;;;;3.87;2.97;;;;;;;;;;7295019;19;142556;-72
2022/04/25 15:04:41;;;;;;;3.83;3.00;;;;;;;;;;7294761;19;140803;-73
2022/04/25 15:07:08;;;;;;;4.68;3.20;;;;;;;;;;7294210;19;141077;-72
2022/04/25 15:09:35;;;;;;;4.13;2.95;;;;;;;;;;7293471;19;141911;-73
2022/04/25 15:12:03;;;;;;;5.23;3.10;;;;;;;;;;7300871;19;141085;-73
2022/04/25 15:14:30;;;;;;;4.77;3.27;;;;;;;;;;7301923;19;141063;-73
2022/04/25 15:16:58;;;;;;;4.63;2.95;;;;;;;;;;7300592;19;141078;-73
2022/04/25 15:19:28;;;;;;;4.10;3.05;;;;;;;;;;7300679;19;141943;-73
2022/04/25 15:21:59;;;;;;;5.05;3.15;;;;;;;;;;7299657;19;143654;-76
2022/04/25 15:24:26;;;;;;;4.05;3.10;;;;;;;;;;7301639;19;141031;-73
2022/04/25 15:26:54;;;;;;;4.78;3.03;;;;;;;;;;7300941;19;141530;-73
2022/04/25 15:29:21;;;;;;;4.72;2.88;;;;;;;;;;7301077;19;141373;-74
2022/04/25 15:31:49;;;;;;;4.05;3.05;;;;;;;;;;7301052;19;141464;-76
2022/04/25 15:34:16;;;;;;;4.20;2.97;;;;;;;;;;7300657;19;141113;-72
2022/04/25 15:36:43;;;;;;;4.80;3.30;;;;;;;;;;7300908;19;140525;-73